Time;durP1;ratioP1;P1;durP2;ratioP2;P2;SDS_P1;SDS_P2;PMS_P1;PMS_P2;Temp;Humidity;BMP_temperature;BMP_pressure;BME280_temperature;BME280_humidity;BME280_pressure;Samples;Min_cycle;Max_cycle;Signal;HPM_P1;HPM_P2
2020/12/20 00:00:33;;;;;;;7.80;7.10;;;9.00;95.90;;;;;;5065182;28;20301;-58
2020/12/20 00:02:58;;;;;;;7.50;6.57;;;9.20;95.60;;;;;;5064844;28;20713;-58
2020/12/20 00:05:25;;;;;;;9.57;6.90;;;9.40;96.00;;;;;;5061004;28;20300;-58
2020/12/20 00:07:52;;;;;;;6.75;6.10;;;9.10;95.70;;;;;;5062917;28;20548;-59
2020/12/20 00:10:18;;;;;;;7.03;6.30;;;9.20;95.70;;;;;;5067922;28;20181;-59
2020/12/20 00:12:44;;;;;;;7.53;6.75;;;9.20;95.60;;;;;;5071198;28;20177;-60
2020/12/20 00:15:10;;;;;;;7.03;6.33;;;9.30;95.50;;;;;;5064631;28;20552;-59
2020/12/20 00:17:35;;;;;;;7.00;6.30;;;9.20;95.30;;;;;;5064090;28;20266;-60
2020/12/20 00:20:06;;;;;;;7.20;6.50;;;9.10;95.10;;;;;;5067790;28;20173;-59
2020/12/20 00:22:32;;;;;;;7.93;6.50;;;9.10;95.10;;;;;;5069285;28;20188;-59
2020/12/20 00:24:58;;;;;;;7.15;6.45;;;9.20;95.10;;;;;;5067804;28;20640;-60
2020/12/20 00:27:24;;;;;;;7.60;6.40;;;9.10;95.20;;;;;;5064142;28;20200;-60
2020/12/20 00:29:49;;;;;;;6.93;5.97;;;9.20;95.50;;;;;;5062813;28;20189;-60
2020/12/20 00:32:15;;;;;;;7.63;6.93;;;9.30;95.40;;;;;;5067889;28;20975;-60
2020/12/20 00:34:41;;;;;;;6.90;6.20;;;9.10;95.20;;;;;;5069351;28;20275;-60
2020/12/20 00:37:07;;;;;;;6.67;5.97;;;9.00;95.30;;;;;;5067795;28;20213;-60
2020/12/20 00:39:33;;;;;;;7.18;6.57;;;9.30;95.40;;;;;;5067416;28;20402;-60
2020/12/20 00:42:01;;;;;;;7.57;6.60;;;9.30;95.50;;;;;;5067870;28;20676;-60
2020/12/20 00:44:27;;;;;;;7.28;6.45;;;8.90;95.40;;;;;;5067537;28;20213;-60
2020/12/20 00:46:55;;;;;;;7.23;6.53;;;9.10;95.40;;;;;;5068954;28;20310;-59
2020/12/20 00:49:25;;;;;;;6.60;6.00;;;9.00;95.30;;;;;;5067322;28;20434;-57
2020/12/20 00:51:52;;;;;;;9.13;7.07;;;8.90;95.40;;;;;;5068005;28;20231;-57
2020/12/20 00:54:18;;;;;;;7.30;6.55;;;9.00;95.40;;;;;;5067569;28;20185;-58
2020/12/20 00:56:44;;;;;;;9.73;6.23;;;8.90;95.80;;;;;;5067450;28;20350;-58
2020/12/20 00:59:11;;;;;;;6.38;5.30;;;8.80;95.60;;;;;;5065198;28;20182;-58
2020/12/20 01:01:37;;;;;;;7.13;6.13;;;8.90;95.80;;;;;;5069423;28;20192;-58
2020/12/20 01:04:02;;;;;;;7.22;6.53;;;8.90;95.90;;;;;;5067488;28;20281;-58
2020/12/20 01:06:28;;;;;;;7.73;6.93;;;9.00;96.00;;;;;;5064193;28;20251;-58
2020/12/20 01:08:54;;;;;;;7.13;6.43;;;8.90;96.00;;;;;;5062622;28;20685;-58
2020/12/20 01:11:20;;;;;;;7.47;6.57;;;8.80;96.00;;;;;;5067749;28;20215;-58
2020/12/20 01:13:47;;;;;;;7.90;7.10;;;9.00;96.20;;;;;;5067048;28;20187;-58
2020/12/20 01:16:22;;;;;;;8.63;6.25;;;8.70;96.20;;;;;;5067984;28;20547;-58
2020/12/20 01:18:48;;;;;;;7.25;6.38;;;8.80;96.60;;;;;;5070526;28;20192;-58
2020/12/20 01:21:14;;;;;;;8.50;6.40;;;8.70;96.50;;;;;;5071256;28;20189;-58
2020/12/20 01:23:39;;;;;;;7.85;7.15;;;8.70;96.60;;;;;;5070981;28;20441;-58
2020/12/20 01:26:05;;;;;;;8.13;6.63;;;9.00;96.70;;;;;;5071125;28;20642;-58
2020/12/20 01:28:32;;;;;;;7.80;6.67;;;8.80;96.70;;;;;;5059703;28;20186;-58
2020/12/20 01:30:58;;;;;;;7.20;6.35;;;8.70;96.60;;;;;;5072221;28;20423;-58
2020/12/20 01:33:23;;;;;;;8.35;7.38;;;8.80;97.00;;;;;;5071077;28;20173;-58
2020/12/20 01:35:50;;;;;;;6.63;5.93;;;8.80;97.10;;;;;;5071031;28;20243;-58
2020/12/20 01:38:16;;;;;;;6.93;6.22;;;8.80;97.00;;;;;;5071028;28;20406;-58
2020/12/20 01:40:41;;;;;;;8.18;6.53;;;8.80;97.00;;;;;;5070888;28;20177;-59
2020/12/20 01:43:07;;;;;;;7.93;7.13;;;8.80;97.00;;;;;;5070988;28;20204;-58
2020/12/20 01:45:33;;;;;;;10.80;7.23;;;9.00;97.20;;;;;;5070503;28;20686;-59
2020/12/20 01:47:59;;;;;;;9.03;5.77;;;9.20;97.40;;;;;;5070247;28;20283;-58
2020/12/20 01:50:25;;;;;;;7.80;6.40;;;9.00;97.40;;;;;;5070349;28;20181;-58
2020/12/20 01:52:51;;;;;;;8.00;6.45;;;8.90;97.10;;;;;;5070741;28;20188;-58
2020/12/20 01:55:21;;;;;;;7.63;6.67;;;9.00;97.10;;;;;;5070671;28;20185;-58
2020/12/20 01:57:48;;;;;;;11.10;6.50;;;9.10;96.90;;;;;;5070633;28;20177;-58
2020/12/20 02:00:13;;;;;;;7.68;6.20;;;9.10;97.10;;;;;;5066827;28;20192;-58
2020/12/20 02:02:39;;;;;;;7.90;7.10;;;8.90;96.90;;;;;;5050468;28;20182;-58
2020/12/20 02:05:04;;;;;;;7.20;6.50;;;9.20;97.00;;;;;;5069589;28;20231;-58
2020/12/20 02:07:30;;;;;;;7.97;7.17;;;8.90;97.00;;;;;;5064023;28;20205;-58
2020/12/20 02:09:56;;;;;;;14.40;7.07;;;9.10;97.10;;;;;;5069888;28;20189;-58
2020/12/20 02:12:26;;;;;;;9.47;7.13;;;9.00;97.10;;;;;;5087064;28;20185;-58
2020/12/20 02:14:53;;;;;;;7.53;6.68;;;9.10;97.20;;;;;;5070614;28;20183;-58
2020/12/20 02:17:18;;;;;;;7.35;6.45;;;9.00;97.20;;;;;;5069989;28;20760;-59
2020/12/20 02:19:44;;;;;;;7.17;6.47;;;9.30;97.60;;;;;;5069765;28;20189;-58
2020/12/20 02:22:10;;;;;;;8.93;7.20;;;9.10;97.50;;;;;;5071228;28;20201;-58
2020/12/20 02:24:35;;;;;;;7.27;6.57;;;9.30;97.70;;;;;;5069765;28;20217;-58
2020/12/20 02:27:01;;;;;;;11.10;6.43;;;9.20;97.70;;;;;;5069681;28;20862;-59
2020/12/20 02:29:26;;;;;;;9.00;6.40;;;9.40;97.70;;;;;;5068749;28;20279;-59
2020/12/20 02:31:52;;;;;;;7.20;6.50;;;9.30;97.60;;;;;;5071338;28;20214;-58
2020/12/20 02:34:18;;;;;;;7.10;6.40;;;9.40;97.60;;;;;;5069601;28;20626;-59
2020/12/20 02:36:43;;;;;;;6.30;5.70;;;9.40;97.50;;;;;;5069556;28;20270;-58
2020/12/20 02:39:09;;;;;;;6.90;6.30;;;9.30;97.60;;;;;;5071005;28;20201;-58
2020/12/20 02:41:35;;;;;;;8.50;5.73;;;9.30;97.60;;;;;;5069501;28;20254;-58
2020/12/20 02:44:02;;;;;;;6.95;6.25;;;9.50;97.50;;;;;;5069241;28;20731;-59
2020/12/20 02:46:30;;;;;;;8.02;6.53;;;9.40;97.60;;;;;;5069309;28;20744;-58
2020/12/20 02:48:58;;;;;;;6.93;6.22;;;9.50;97.40;;;;;;5069187;28;20188;-58
2020/12/20 02:51:24;;;;;;;6.78;6.07;;;9.50;97.20;;;;;;5070566;28;20215;-58
2020/12/20 02:53:50;;;;;;;7.38;6.65;;;9.40;96.90;;;;;;5069284;28;20230;-58
2020/12/20 02:56:19;;;;;;;6.22;5.63;;;9.50;96.80;;;;;;5069165;28;20296;-58
2020/12/20 02:58:46;;;;;;;7.90;6.13;;;9.50;96.70;;;;;;5068998;28;20185;-59
2020/12/20 03:01:11;;;;;;;6.63;6.03;;;9.80;96.70;;;;;;5069075;28;20677;-58
2020/12/20 03:03:37;;;;;;;6.77;6.13;;;9.60;96.50;;;;;;5069190;28;20193;-58
2020/12/20 03:06:03;;;;;;;6.83;6.10;;;9.50;96.50;;;;;;5068866;28;20208;-58
2020/12/20 03:08:28;;;;;;;6.43;5.87;;;9.60;96.30;;;;;;5068898;28;20184;-58
2020/12/20 03:10:54;;;;;;;7.83;6.43;;;9.60;96.40;;;;;;5070093;28;20181;-58
2020/12/20 03:13:19;;;;;;;7.73;6.60;;;9.60;96.70;;;;;;5069224;28;20566;-58
2020/12/20 03:15:45;;;;;;;7.23;6.57;;;9.80;96.20;;;;;;5068849;28;20209;-58
2020/12/20 03:18:11;;;;;;;7.50;6.53;;;9.40;96.20;;;;;;5066234;28;20192;-58
2020/12/20 03:20:36;;;;;;;6.63;6.03;;;9.40;96.00;;;;;;5059866;28;20699;-58
2020/12/20 03:23:04;;;;;;;8.70;7.27;;;9.40;95.80;;;;;;5067589;28;20533;-58
2020/12/20 03:25:30;;;;;;;7.05;5.97;;;9.40;95.90;;;;;;5068717;28;20227;-58
2020/12/20 03:27:56;;;;;;;7.40;6.70;;;9.40;96.00;;;;;;5068246;28;20174;-58
2020/12/20 03:30:22;;;;;;;6.70;6.10;;;9.50;95.90;;;;;;5068478;28;20191;-58
2020/12/20 03:32:48;;;;;;;7.50;6.60;;;9.40;96.10;;;;;;5069629;28;20263;-58
2020/12/20 03:35:14;;;;;;;7.35;6.38;;;9.30;96.10;;;;;;5068492;28;20189;-58
2020/12/20 03:37:49;;;;;;;7.53;6.25;;;9.20;96.40;;;;;;5068304;28;20200;-59
2020/12/20 03:40:14;;;;;;;7.00;6.30;;;9.30;96.40;;;;;;5068316;28;20188;-58
2020/12/20 03:42:40;;;;;;;9.60;6.70;;;9.20;96.40;;;;;;5069732;28;20380;-58
2020/12/20 03:45:06;;;;;;;6.40;5.80;;;9.50;96.40;;;;;;5068131;28;20528;-59
2020/12/20 03:47:32;;;;;;;6.93;6.30;;;9.50;96.50;;;;;;5068347;28;20200;-58
2020/12/20 03:49:58;;;;;;;6.80;6.15;;;9.20;96.40;;;;;;5068376;28;20247;-58
2020/12/20 03:52:23;;;;;;;7.23;6.53;;;8.70;96.20;;;;;;5068099;28;20177;-58
2020/12/20 03:54:49;;;;;;;6.97;6.27;;;9.10;96.90;;;;;;5068329;28;20184;-59
2020/12/20 03:57:14;;;;;;;7.70;6.90;;;9.20;96.70;;;;;;5069235;28;20220;-58
2020/12/20 03:59:40;;;;;;;7.50;6.80;;;9.30;96.90;;;;;;5069567;28;20251;-58
2020/12/20 04:02:06;;;;;;;7.20;6.50;;;9.10;96.70;;;;;;5068425;28;20677;-58
2020/12/20 04:04:32;;;;;;;6.80;6.20;;;9.20;96.90;;;;;;5069505;28;20205;-59
2020/12/20 04:07:01;;;;;;;7.53;6.78;;;9.10;97.20;;;;;;5064538;28;20201;-58
2020/12/20 04:09:27;;;;;;;6.85;6.25;;;9.00;97.20;;;;;;5063590;28;20532;-59
2020/12/20 04:11:52;;;;;;;7.63;6.40;;;9.10;97.20;;;;;;5068181;28;20181;-58
2020/12/20 04:14:18;;;;;;;7.43;6.73;;;8.90;97.00;;;;;;5068207;28;20254;-60
2020/12/20 04:16:43;;;;;;;7.60;6.90;;;9.20;97.20;;;;;;5064472;28;20200;-58
2020/12/20 04:19:12;;;;;;;7.30;6.33;;;9.00;97.40;;;;;;5063117;28;20185;-59
2020/12/20 04:21:38;;;;;;;7.13;6.40;;;8.90;97.40;;;;;;5068019;28;20184;-58
2020/12/20 04:24:03;;;;;;;7.80;6.57;;;8.70;97.50;;;;;;5067888;28;20216;-58
2020/12/20 04:26:29;;;;;;;6.83;6.23;;;9.10;98.20;;;;;;5067807;28;20212;-58
2020/12/20 04:28:54;;;;;;;8.07;6.20;;;8.80;97.70;;;;;;5067831;28;20173;-58
2020/12/20 04:31:22;;;;;;;7.27;6.67;;;9.00;98.00;;;;;;5067871;28;20547;-57
2020/12/20 04:33:48;;;;;;;7.53;6.85;;;8.90;98.00;;;;;;5067916;28;20250;-58
2020/12/20 04:36:13;;;;;;;7.17;6.57;;;9.00;98.20;;;;;;5067706;28;20217;-58
2020/12/20 04:38:39;;;;;;;7.83;6.80;;;8.80;98.20;;;;;;5067566;28;20253;-58
2020/12/20 04:41:04;;;;;;;7.87;6.63;;;8.80;98.10;;;;;;5067915;28;20650;-58
2020/12/20 04:43:31;;;;;;;7.70;6.07;;;8.60;98.20;;;;;;5067969;28;20196;-59
2020/12/20 04:45:57;;;;;;;10.00;7.10;;;9.00;98.60;;;;;;5067829;28;20290;-59
2020/12/20 04:48:34;;;;;;;7.65;6.30;;;8.60;98.40;;;;;;5067729;28;20204;-60
2020/12/20 04:51:01;;;;;;;7.40;6.70;;;8.90;98.70;;;;;;5068057;28;20193;-58
2020/12/20 04:53:28;;;;;;;9.10;6.55;;;8.90;98.90;;;;;;5072602;28;20193;-59
2020/12/20 04:55:57;;;;;;;7.43;6.65;;;9.10;98.60;;;;;;5071413;28;20209;-58
2020/12/20 04:58:23;;;;;;;7.78;7.07;;;8.90;98.60;;;;;;5072643;28;20218;-58
2020/12/20 05:00:49;;;;;;;9.93;7.60;;;8.60;98.40;;;;;;5065024;28;20220;-58
2020/12/20 05:03:14;;;;;;;8.27;6.93;;;8.70;98.50;;;;;;5071402;28;20634;-59
2020/12/20 05:05:40;;;;;;;8.50;6.90;;;8.80;98.70;;;;;;5071293;28;20471;-59
2020/12/20 05:08:06;;;;;;;6.90;6.00;;;8.80;98.60;;;;;;5070964;28;20243;-58
2020/12/20 05:10:39;;;;;;;7.20;6.50;;;8.80;98.70;;;;;;5071441;28;20189;-58
2020/12/20 05:13:05;;;;;;;9.07;7.47;;;8.80;98.90;;;;;;5070854;28;20466;-57
2020/12/20 05:15:31;;;;;;;8.32;6.50;;;9.00;98.90;;;;;;5071085;28;20185;-58
2020/12/20 05:18:11;;;;;;;6.90;6.20;;;8.90;98.80;;;;;;5070718;28;20185;-58
2020/12/20 05:20:44;;;;;;;9.95;7.57;;;8.70;98.70;;;;;;5071130;28;20188;-59
2020/12/20 05:23:12;;;;;;;7.70;6.78;;;8.80;98.90;;;;;;5071264;28;20195;-58
2020/12/20 05:25:39;;;;;;;8.20;7.40;;;8.60;98.80;;;;;;5070769;28;20232;-58
2020/12/20 05:28:09;;;;;;;7.65;6.85;;;8.90;99.10;;;;;;5070648;28;20634;-59
2020/12/20 05:30:35;;;;;;;7.07;6.35;;;8.80;99.20;;;;;;5071136;28;20240;-58
2020/12/20 05:33:01;;;;;;;7.80;7.00;;;8.50;99.10;;;;;;5070746;28;20185;-58
2020/12/20 05:35:26;;;;;;;7.50;6.73;;;8.80;99.50;;;;;;5070823;28;20189;-59
2020/12/20 05:37:52;;;;;;;7.90;7.00;;;8.60;99.40;;;;;;5070651;28;20480;-59
2020/12/20 05:40:28;;;;;;;9.50;7.13;;;8.60;99.20;;;;;;5070659;28;20197;-59
2020/12/20 05:43:05;;;;;;;10.07;6.72;;;8.60;99.50;;;;;;5087155;28;20207;-59
2020/12/20 05:45:35;;;;;;;6.85;6.15;;;8.80;99.60;;;;;;5070877;28;20197;-58
2020/12/20 05:48:19;;;;;;;7.40;6.60;;;8.80;99.30;;;;;;5070379;28;20176;-59
2020/12/20 05:50:59;;;;;;;6.68;6.05;;;8.70;99.30;;;;;;5070525;28;20547;-59
2020/12/20 05:53:27;;;;;;;7.32;6.60;;;8.70;99.20;;;;;;5070395;28;20173;-59
2020/12/20 05:55:54;;;;;;;7.82;6.47;;;8.70;99.00;;;;;;5069972;28;20236;-59
2020/12/20 05:58:20;;;;;;;6.60;6.00;;;8.90;98.90;;;;;;5070057;28;20271;-59
2020/12/20 06:00:47;;;;;;;8.10;7.10;;;8.70;98.70;;;;;;5067220;28;20556;-58
2020/12/20 06:03:13;;;;;;;7.80;6.30;;;8.70;98.50;;;;;;5069084;28;20200;-59
2020/12/20 06:05:41;;;;;;;8.18;6.35;;;8.90;98.60;;;;;;5070186;28;20216;-58
2020/12/20 06:08:12;;;;;;;7.43;6.80;;;8.90;98.30;;;;;;5069722;28;20217;-59
2020/12/20 06:10:44;;;;;;;6.63;6.00;;;8.70;98.20;;;;;;5070133;28;20222;-59
2020/12/20 06:13:17;;;;;;;7.85;7.07;;;8.60;98.00;;;;;;5069867;28;20189;-58
2020/12/20 06:15:44;;;;;;;7.40;6.70;;;8.90;98.30;;;;;;5069812;28;20257;-60
2020/12/20 06:18:13;;;;;;;7.03;6.32;;;8.60;98.00;;;;;;5069995;28;20208;-60
2020/12/20 06:20:59;;;;;;;8.98;7.03;;;8.80;98.30;;;;;;5061855;28;20174;-60
2020/12/20 06:23:26;;;;;;;8.05;6.70;;;8.80;98.10;;;;;;5062520;28;20651;-60
2020/12/20 06:25:57;;;;;;;6.35;5.80;;;8.70;97.80;;;;;;5069796;28;20705;-59
2020/12/20 06:28:26;;;;;;;7.45;6.85;;;8.80;98.10;;;;;;5069470;28;20181;-59
2020/12/20 06:30:52;;;;;;;7.10;6.40;;;8.60;98.00;;;;;;5069626;28;20806;-59
2020/12/20 06:33:44;;;;;;;6.53;5.95;;;8.60;98.10;;;;;;5069252;28;20181;-59
2020/12/20 06:36:13;;;;;;;7.40;6.70;;;8.60;97.90;;;;;;5070855;28;20201;-59
2020/12/20 06:38:39;;;;;;;8.07;6.57;;;8.70;97.90;;;;;;5070578;28;20185;-59
2020/12/20 06:41:06;;;;;;;7.18;6.10;;;8.50;97.90;;;;;;5069581;28;20209;-59
2020/12/20 06:43:37;;;;;;;7.55;6.10;;;8.70;97.80;;;;;;5069616;28;20184;-59
2020/12/20 06:46:05;;;;;;;7.53;6.38;;;8.70;98.10;;;;;;5069735;28;20678;-59
2020/12/20 06:48:38;;;;;;;8.05;7.25;;;8.50;98.10;;;;;;5070798;28;20177;-59
2020/12/20 06:51:05;;;;;;;7.95;6.47;;;8.50;98.10;;;;;;5069806;28;20208;-59
2020/12/20 06:53:49;;;;;;;9.40;6.22;;;8.50;98.00;;;;;;5069159;28;20276;-58
2020/12/20 06:56:16;;;;;;;7.25;6.55;;;8.60;97.90;;;;;;5069063;28;20553;-59
2020/12/20 06:58:42;;;;;;;7.15;6.45;;;8.60;98.00;;;;;;5067615;28;20189;-58
2020/12/20 07:01:07;;;;;;;7.60;6.77;;;8.40;98.00;;;;;;5060644;28;20185;-59
2020/12/20 07:03:36;;;;;;;6.90;6.20;;;8.40;98.10;;;;;;5069057;28;20552;-59
2020/12/20 07:06:15;;;;;;;6.82;6.13;;;8.50;98.10;;;;;;5068951;28;20232;-58
2020/12/20 07:08:41;;;;;;;7.75;6.38;;;8.40;98.30;;;;;;5068624;28;20181;-60
2020/12/20 07:11:22;;;;;;;7.50;6.30;;;8.70;98.30;;;;;;5068808;28;20191;-59
2020/12/20 07:13:49;;;;;;;6.75;6.15;;;8.50;98.00;;;;;;5068412;28;20423;-59
2020/12/20 07:16:16;;;;;;;8.45;6.82;;;8.60;97.80;;;;;;5068681;28;20212;-59
2020/12/20 07:18:42;;;;;;;7.88;7.07;;;8.70;98.10;;;;;;5068328;28;20796;-59
2020/12/20 07:21:32;;;;;;;8.47;6.37;;;8.40;97.90;;;;;;5068721;28;20185;-59
2020/12/20 07:24:02;;;;;;;7.25;6.55;;;8.50;97.80;;;;;;5074140;28;20237;-60
2020/12/20 07:26:28;;;;;;;6.93;6.22;;;8.40;97.90;;;;;;5068360;28;20259;-58
2020/12/20 07:29:02;;;;;;;7.00;6.40;;;8.70;97.80;;;;;;5068764;28;20214;-59
2020/12/20 07:31:28;;;;;;;7.10;6.43;;;8.70;98.40;;;;;;5068733;28;20688;-59
2020/12/20 07:33:55;;;;;;;6.78;6.07;;;8.60;98.30;;;;;;5068503;28;20535;-59
2020/12/20 07:36:22;;;;;;;9.20;6.15;;;8.50;97.90;;;;;;5068626;28;20244;-59
2020/12/20 07:38:49;;;;;;;7.72;6.63;;;8.60;97.90;;;;;;5068285;28;20213;-59
2020/12/20 07:41:16;;;;;;;6.70;5.88;;;8.60;97.70;;;;;;5068570;28;20196;-59
2020/12/20 07:43:49;;;;;;;10.32;6.60;;;8.60;97.60;;;;;;5069512;28;20177;-59
2020/12/20 07:46:16;;;;;;;7.88;6.90;;;8.60;97.50;;;;;;5068450;28;20224;-58
2020/12/20 07:48:42;;;;;;;7.55;5.95;;;8.60;97.60;;;;;;5068382;28;20504;-59
2020/12/20 07:51:21;;;;;;;7.60;6.13;;;8.70;97.50;;;;;;5068557;28;20173;-59
2020/12/20 07:53:49;;;;;;;7.63;6.57;;;8.60;97.40;;;;;;5068664;28;20176;-59
2020/12/20 07:56:56;;;;;;;7.22;6.30;;;8.70;97.50;;;;;;5068268;28;20232;-59
2020/12/20 07:59:22;;;;;;;7.65;6.80;;;8.90;97.80;;;;;;5050791;28;20193;-59
2020/12/20 08:01:48;;;;;;;8.13;7.23;;;8.60;97.40;;;;;;5068321;28;20273;-59
2020/12/20 08:04:15;;;;;;;7.15;6.28;;;8.80;97.60;;;;;;5068163;28;20217;-59
2020/12/20 08:06:42;;;;;;;7.13;6.28;;;8.70;97.30;;;;;;5064597;28;20697;-59
2020/12/20 08:09:09;;;;;;;7.03;6.28;;;8.90;97.30;;;;;;5062836;28;20181;-59
2020/12/20 08:11:36;;;;;;;6.88;6.18;;;8.80;97.20;;;;;;5068728;28;20568;-59
2020/12/20 08:14:07;;;;;;;7.25;6.40;;;8.70;97.10;;;;;;5068201;28;20275;-59
2020/12/20 08:16:38;;;;;;;7.78;6.90;;;8.70;96.90;;;;;;5068079;28;20208;-59
2020/12/20 08:19:07;;;;;;;7.50;6.43;;;9.00;97.50;;;;;;5066040;28;20189;-59
2020/12/20 08:21:38;;;;;;;7.50;6.10;;;8.90;97.40;;;;;;5067972;28;20185;-59
2020/12/20 08:24:04;;;;;;;8.10;7.30;;;9.10;97.30;;;;;;5067921;28;20216;-59
2020/12/20 08:26:32;;;;;;;7.18;6.47;;;9.10;97.20;;;;;;5069147;28;20397;-59
2020/12/20 08:28:59;;;;;;;7.70;7.00;;;8.80;96.90;;;;;;5071786;28;20189;-59
2020/12/20 08:31:31;;;;;;;8.32;6.68;;;9.00;97.00;;;;;;5071943;28;20184;-59
2020/12/20 08:34:01;;;;;;;8.63;6.63;;;9.00;97.60;;;;;;5071755;28;20180;-59
2020/12/20 08:36:27;;;;;;;7.68;6.93;;;9.30;97.60;;;;;;5071712;28;20398;-59
2020/12/20 08:38:54;;;;;;;9.02;6.68;;;9.20;97.50;;;;;;5071853;28;20658;-58
2020/12/20 08:41:27;;;;;;;8.57;6.82;;;9.10;97.10;;;;;;5072071;28;20608;-59
2020/12/20 08:44:07;;;;;;;7.35;6.63;;;9.20;97.30;;;;;;5072950;28;20192;-59
2020/12/20 08:46:36;;;;;;;6.97;6.25;;;9.40;97.30;;;;;;5071685;28;20245;-59
2020/12/20 08:49:14;;;;;;;9.40;6.85;;;9.40;97.30;;;;;;5071511;28;20177;-59
2020/12/20 08:51:40;;;;;;;8.10;6.43;;;9.40;97.50;;;;;;5071421;28;20576;-59
2020/12/20 08:54:06;;;;;;;9.55;6.80;;;9.30;97.10;;;;;;5071530;28;20565;-59
2020/12/20 08:56:32;;;;;;;7.23;6.40;;;9.40;96.80;;;;;;5071650;28;20216;-59
2020/12/20 08:58:58;;;;;;;7.83;7.00;;;9.50;96.90;;;;;;5071553;28;20501;-59
2020/12/20 09:01:41;;;;;;;8.38;6.80;;;9.60;96.90;;;;;;5071413;28;20661;-59
2020/12/20 09:04:10;;;;;;;8.05;6.53;;;9.50;96.70;;;;;;5071646;28;20579;-59
2020/12/20 09:06:36;;;;;;;8.20;6.95;;;9.50;96.40;;;;;;5068100;28;20225;-59
2020/12/20 09:09:02;;;;;;;8.45;6.97;;;9.50;96.30;;;;;;5062686;28;20209;-59
2020/12/20 09:11:28;;;;;;;8.25;7.30;;;9.60;96.50;;;;;;5071279;28;20275;-59
2020/12/20 09:13:54;;;;;;;10.73;6.73;;;9.60;96.40;;;;;;5071717;28;20259;-59
2020/12/20 09:16:19;;;;;;;10.03;7.60;;;9.60;96.40;;;;;;5072317;28;20197;-59
2020/12/20 09:18:45;;;;;;;10.53;7.90;;;9.80;96.60;;;;;;5071079;28;20226;-59
2020/12/20 09:21:10;;;;;;;7.47;6.77;;;9.90;96.80;;;;;;5071036;28;20177;-59
2020/12/20 09:23:36;;;;;;;7.70;7.00;;;9.70;96.50;;;;;;5071222;28;20177;-59
2020/12/20 09:26:03;;;;;;;9.43;7.07;;;9.90;96.10;;;;;;5070053;28;20686;-59
2020/12/20 09:28:32;;;;;;;7.22;6.57;;;10.10;95.40;;;;;;5061216;28;20686;-59
2020/12/20 09:30:59;;;;;;;8.52;7.32;;;10.30;94.90;;;;;;5069745;28;20192;-59
2020/12/20 09:33:25;;;;;;;7.25;6.55;;;10.50;94.90;;;;;;5071036;28;20184;-59
2020/12/20 09:35:58;;;;;;;7.93;7.13;;;10.40;94.70;;;;;;5087391;28;20197;-59
2020/12/20 09:38:26;;;;;;;7.45;6.75;;;10.60;94.30;;;;;;5087269;28;20181;-59
2020/12/20 09:41:00;;;;;;;8.95;7.15;;;10.80;94.30;;;;;;5070562;28;20275;-59
2020/12/20 09:43:26;;;;;;;9.88;6.57;;;10.90;93.80;;;;;;5070598;28;20266;-59
2020/12/20 09:45:52;;;;;;;6.90;6.27;;;10.80;94.00;;;;;;5070417;28;20237;-59
2020/12/20 09:48:17;;;;;;;8.63;7.73;;;10.80;93.70;;;;;;5070372;28;20422;-59
2020/12/20 09:50:43;;;;;;;7.23;6.53;;;11.00;93.80;;;;;;5070561;28;20590;-59
2020/12/20 09:53:09;;;;;;;7.80;7.00;;;10.80;93.80;;;;;;5070306;28;20182;-59
2020/12/20 09:55:34;;;;;;;9.13;6.67;;;11.30;93.80;;;;;;5072156;28;20608;-59
2020/12/20 09:58:00;;;;;;;8.13;7.33;;;10.90;93.60;;;;;;5070142;28;20435;-59
2020/12/20 10:00:25;;;;;;;7.00;6.30;;;11.00;93.70;;;;;;5070244;28;20182;-60
2020/12/20 10:02:51;;;;;;;6.60;6.00;;;11.60;93.40;;;;;;5070430;28;20632;-59
2020/12/20 10:05:17;;;;;;;7.90;7.20;;;11.80;93.10;;;;;;5070344;28;20254;-59
2020/12/20 10:07:42;;;;;;;8.23;7.37;;;11.50;92.90;;;;;;5063740;28;20397;-59
2020/12/20 10:10:08;;;;;;;7.50;6.70;;;11.40;92.90;;;;;;5070001;28;20294;-59
2020/12/20 10:12:35;;;;;;;7.73;6.97;;;11.60;92.70;;;;;;5069896;28;20187;-59
2020/12/20 10:15:01;;;;;;;8.02;7.18;;;11.70;92.70;;;;;;5071002;28;20213;-59
2020/12/20 10:17:26;;;;;;;10.00;6.50;;;11.70;92.80;;;;;;5069565;28;20233;-59
2020/12/20 10:19:53;;;;;;;7.80;7.00;;;11.60;92.50;;;;;;5069972;28;20441;-59
2020/12/20 10:22:19;;;;;;;8.45;7.10;;;11.70;92.60;;;;;;5070218;28;20627;-59
2020/12/20 10:24:45;;;;;;;7.88;6.95;;;11.80;92.60;;;;;;5069751;28;20698;-59
2020/12/20 10:27:10;;;;;;;7.20;6.50;;;12.00;92.70;;;;;;5068337;28;20200;-59
2020/12/20 10:29:36;;;;;;;7.73;7.03;;;11.90;92.40;;;;;;5069469;28;20196;-59
2020/12/20 10:32:01;;;;;;;7.40;6.60;;;12.00;92.50;;;;;;5069308;28;20186;-59
2020/12/20 10:34:27;;;;;;;9.20;7.20;;;11.70;92.80;;;;;;5068999;28;20196;-59
2020/12/20 10:36:53;;;;;;;9.00;6.60;;;11.60;93.20;;;;;;5069572;28;20214;-59
2020/12/20 10:39:19;;;;;;;6.97;6.27;;;11.70;93.20;;;;;;5070660;28;20197;-59
2020/12/20 10:41:45;;;;;;;7.90;7.10;;;11.20;92.90;;;;;;5069479;28;20676;-59
2020/12/20 10:44:11;;;;;;;8.95;8.05;;;12.00;93.30;;;;;;5069573;28;20241;-59
2020/12/20 10:46:37;;;;;;;8.77;7.90;;;12.10;93.10;;;;;;5069281;28;20236;-59
2020/12/20 10:49:04;;;;;;;8.60;6.90;;;12.20;93.00;;;;;;5068771;28;20539;-59
2020/12/20 10:51:29;;;;;;;13.50;7.82;;;12.10;92.80;;;;;;5068888;28;20194;-58
2020/12/20 10:53:55;;;;;;;8.23;7.43;;;12.00;92.90;;;;;;5069372;28;20269;-59
2020/12/20 10:56:21;;;;;;;10.00;7.60;;;12.20;93.30;;;;;;5069130;28;20246;-59
2020/12/20 10:58:48;;;;;;;8.30;7.50;;;12.00;93.40;;;;;;5069379;28;20496;-58
2020/12/20 11:01:18;;;;;;;10.23;8.05;;;12.20;93.10;;;;;;5069076;28;20430;-59
2020/12/20 11:03:49;;;;;;;8.32;7.38;;;12.10;93.00;;;;;;5069008;28;20187;-59
2020/12/20 11:06:23;;;;;;;13.73;8.30;;;12.00;92.60;;;;;;5068681;28;20261;-59
2020/12/20 11:08:49;;;;;;;9.38;7.22;;;12.10;92.90;;;;;;5068493;28;20219;-59
2020/12/20 11:11:16;;;;;;;8.60;7.80;;;12.20;93.00;;;;;;5068923;28;20180;-59
2020/12/20 11:13:42;;;;;;;12.00;7.88;;;12.20;93.40;;;;;;5068870;28;20233;-58
2020/12/20 11:16:26;;;;;;;8.50;7.70;;;12.40;92.70;;;;;;5068895;28;20211;-58
2020/12/20 11:18:52;;;;;;;8.25;7.10;;;12.50;92.40;;;;;;5068611;28;20179;-59
2020/12/20 11:21:18;;;;;;;8.50;7.63;;;12.60;92.50;;;;;;5068500;28;20279;-59
2020/12/20 11:23:45;;;;;;;11.48;8.15;;;12.50;92.60;;;;;;5068633;28;20202;-59
2020/12/20 11:26:11;;;;;;;11.40;7.85;;;12.60;92.80;;;;;;5069653;28;20261;-59
2020/12/20 11:28:37;;;;;;;9.27;7.63;;;12.50;92.30;;;;;;5069719;28;20178;-59
2020/12/20 11:31:04;;;;;;;9.07;7.75;;;12.60;92.70;;;;;;5068505;28;20194;-59
2020/12/20 11:33:29;;;;;;;9.43;8.35;;;12.60;93.00;;;;;;5068288;28;20219;-58
2020/12/20 11:35:55;;;;;;;11.25;8.98;;;12.50;92.80;;;;;;5068787;28;20322;-58
2020/12/20 11:38:22;;;;;;;9.10;8.10;;;12.80;92.90;;;;;;5068281;28;20282;-58
2020/12/20 11:40:48;;;;;;;9.23;8.32;;;13.10;92.60;;;;;;5069510;28;20196;-59
2020/12/20 11:43:13;;;;;;;9.03;8.13;;;13.30;92.40;;;;;;5068466;28;20195;-59
2020/12/20 11:45:39;;;;;;;10.93;8.17;;;13.30;92.00;;;;;;5068067;28;20232;-59
2020/12/20 11:48:04;;;;;;;7.77;6.97;;;13.30;91.40;;;;;;5068282;28;20449;-59
2020/12/20 11:50:30;;;;;;;8.07;7.27;;;13.70;91.40;;;;;;5068500;28;20579;-59
2020/12/20 11:52:56;;;;;;;7.83;6.70;;;13.40;91.20;;;;;;5067931;28;20172;-59
2020/12/20 11:55:21;;;;;;;7.83;6.97;;;13.50;91.30;;;;;;5068333;28;20181;-59
2020/12/20 11:57:47;;;;;;;8.37;7.57;;;13.60;91.60;;;;;;5068157;28;20461;-59
2020/12/20 12:00:12;;;;;;;8.87;7.73;;;13.60;91.10;;;;;;5067594;28;20192;-59
2020/12/20 12:02:38;;;;;;;8.47;7.60;;;13.60;90.60;;;;;;5069363;28;20246;-59
2020/12/20 12:05:04;;;;;;;8.70;7.33;;;13.40;90.30;;;;;;5068311;28;20284;-59
2020/12/20 12:07:30;;;;;;;9.13;8.23;;;13.20;90.20;;;;;;5064713;28;20500;-58
2020/12/20 12:09:56;;;;;;;10.57;8.32;;;13.30;90.40;;;;;;5067975;28;20728;-58
2020/12/20 12:12:23;;;;;;;9.50;8.07;;;13.30;90.30;;;;;;5068080;28;20231;-58
2020/12/20 12:14:49;;;;;;;8.38;7.63;;;13.40;90.50;;;;;;5067689;28;20932;-59
2020/12/20 12:17:16;;;;;;;9.57;8.57;;;13.30;90.30;;;;;;5067816;28;20233;-58
2020/12/20 12:19:41;;;;;;;28.80;23.70;;;13.40;90.80;;;;;;5067870;28;20537;-59
2020/12/20 12:22:07;;;;;;;14.57;11.40;;;13.40;90.90;;;;;;5067779;28;20194;-59
2020/12/20 12:24:32;;;;;;;8.93;8.00;;;13.30;90.90;;;;;;5067488;28;20215;-58
2020/12/20 12:26:58;;;;;;;9.13;8.17;;;13.50;90.70;;;;;;5067910;28;20211;-58
2020/12/20 12:29:24;;;;;;;10.40;8.60;;;13.40;90.30;;;;;;5067738;28;20232;-59
2020/12/20 12:31:49;;;;;;;12.40;7.90;;;13.20;90.10;;;;;;5067687;28;20264;-59
2020/12/20 12:34:15;;;;;;;11.37;8.50;;;13.00;90.10;;;;;;5060164;28;20530;-59
2020/12/20 12:36:40;;;;;;;8.87;8.03;;;12.80;90.30;;;;;;5060535;28;20208;-59
2020/12/20 12:39:09;;;;;;;8.77;7.87;;;12.50;90.40;;;;;;5067453;28;20211;-59
2020/12/20 12:41:34;;;;;;;9.45;8.50;;;12.60;90.80;;;;;;5069521;28;20262;-59
2020/12/20 12:44:00;;;;;;;9.37;7.60;;;12.60;91.10;;;;;;5069357;28;20321;-59
2020/12/20 12:46:26;;;;;;;9.43;8.47;;;12.60;90.90;;;;;;5067817;28;20282;-59
2020/12/20 12:48:51;;;;;;;10.37;7.80;;;12.50;91.20;;;;;;5066757;28;20191;-59
2020/12/20 12:51:24;;;;;;;8.53;7.70;;;12.40;91.40;;;;;;5067089;28;20211;-59
2020/12/20 12:53:51;;;;;;;8.35;7.50;;;12.10;91.20;;;;;;5066767;28;20185;-58